Oakwood, Ohio
Current Conditions -  °F | °C
As of 6:04 AM on Friday 28 Nov 2014 (Local Time) from KDFI Reporting Station
Scattered Clouds Scattered Clouds  
Wind Chill: 21°   Ceiling: Unl
Heat Index: 21°   Visibility: 10mi
Dew Point: 16°   Wind: 3mph
Humidity: 81%   Direction: 230°SW
Pressure: 30.37"   Gusts: NA
Location:  41.1°N, 84.38°W
Report Text: KDFI 281104Z AUTO 23003KT 10SM SCT018 M06/M09 A3037 RMK AO2 T10611089
Loading
Personal Weather Stations






























Interactive Weather Map New forecast layout! Learn more

10-Day Weather Forecast

Advertisements
Track Severe Weather on mobile